createdAt,value
2023-08-27T00:02:29.330Z,15.66
2023-08-27T00:08:19.151Z,15.73
2023-08-27T00:11:08.856Z,15.73
2023-08-27T00:13:59.418Z,15.73
2023-08-27T00:16:39.082Z,15.73
2023-08-27T00:19:36.179Z,15.69
2023-08-27T00:22:24.560Z,15.70
2023-08-27T00:24:56.095Z,15.71
2023-08-27T00:27:42.228Z,15.73
2023-08-27T00:30:17.385Z,15.75
2023-08-27T00:32:48.495Z,15.78
2023-08-27T00:35:20.042Z,15.77
2023-08-27T00:37:51.085Z,15.80
2023-08-27T00:40:22.060Z,15.78
2023-08-27T00:42:57.024Z,15.76
2023-08-27T00:45:28.843Z,15.76
2023-08-27T00:48:04.358Z,15.72
2023-08-27T00:50:37.571Z,15.67
2023-08-27T00:53:09.822Z,15.68
2023-08-27T00:55:41.363Z,15.68
2023-08-27T00:58:12.881Z,15.68
2023-08-27T01:00:44.108Z,15.68
2023-08-27T01:03:14.990Z,15.67
2023-08-27T01:05:46.189Z,15.62
2023-08-27T01:08:42.839Z,15.60
2023-08-27T01:11:28.358Z,15.58
2023-08-27T01:14:05.741Z,15.57
2023-08-27T01:16:41.441Z,15.63
2023-08-27T01:19:20.762Z,15.67
2023-08-27T01:21:51.796Z,15.66
2023-08-27T01:24:22.705Z,15.63
2023-08-27T01:27:09.531Z,15.61
2023-08-27T01:29:45.413Z,15.58
2023-08-27T01:32:27.711Z,15.59
2023-08-27T01:35:01.636Z,15.58
2023-08-27T01:37:32.550Z,15.59
2023-08-27T01:40:07.472Z,15.57
2023-08-27T01:42:41.284Z,15.55
2023-08-27T01:45:16.872Z,15.54
2023-08-27T01:47:47.950Z,15.52
2023-08-27T01:50:18.774Z,15.53
2023-08-27T01:52:49.570Z,15.52
2023-08-27T01:55:22.277Z,15.51
2023-08-27T01:57:52.975Z,15.52
2023-08-27T02:00:23.895Z,15.51
2023-08-27T02:02:55.104Z,15.51
2023-08-27T02:05:25.786Z,15.50
2023-08-27T02:07:57.303Z,15.48
2023-08-27T02:10:27.968Z,15.46
2023-08-27T02:12:59.203Z,15.46
2023-08-27T02:15:31.077Z,15.42
2023-08-27T02:18:01.976Z,15.39
2023-08-27T02:20:32.939Z,15.37
2023-08-27T02:23:04.515Z,15.37
2023-08-27T02:25:35.222Z,15.39
2023-08-27T02:28:06.695Z,15.41
2023-08-27T02:30:37.727Z,15.40
2023-08-27T02:33:08.733Z,15.38
2023-08-27T02:35:39.403Z,15.37
2023-08-27T02:38:10.049Z,15.36
2023-08-27T02:40:42.680Z,15.36
2023-08-27T02:43:13.766Z,15.39
2023-08-27T02:45:44.436Z,15.37
2023-08-27T02:48:15.223Z,15.34
2023-08-27T02:50:46.173Z,15.35
2023-08-27T02:53:17.046Z,15.35
2023-08-27T02:55:47.873Z,15.35
2023-08-27T02:58:18.627Z,15.37
2023-08-27T03:00:49.454Z,15.37
2023-08-27T03:03:20.329Z,15.35
2023-08-27T03:05:51.256Z,15.34
2023-08-27T03:08:21.963Z,15.30
2023-08-27T03:10:52.845Z,15.25
2023-08-27T03:13:23.574Z,15.24
2023-08-27T03:15:58.089Z,15.22
2023-08-27T03:18:32.375Z,15.19
2023-08-27T03:21:03.649Z,15.23
2023-08-27T03:23:36.715Z,15.21
2023-08-27T03:26:07.576Z,15.17
2023-08-27T03:28:38.213Z,15.15
2023-08-27T03:31:08.876Z,15.12
2023-08-27T03:33:40.847Z,15.15
2023-08-27T03:36:11.775Z,15.12
2023-08-27T03:38:42.427Z,15.12
2023-08-27T03:41:13.701Z,15.12
2023-08-27T03:43:44.416Z,15.09
2023-08-27T03:46:15.183Z,15.07
2023-08-27T03:48:45.847Z,15.09
2023-08-27T03:51:17.163Z,15.10
2023-08-27T03:53:47.835Z,15.11
2023-08-27T03:56:18.495Z,15.10
2023-08-27T03:58:50.472Z,15.09
2023-08-27T04:01:21.476Z,15.08
2023-08-27T04:03:54.554Z,15.06
2023-08-27T04:06:25.279Z,15.04
2023-08-27T04:08:56.073Z,15.01
2023-08-27T04:11:26.981Z,14.97
2023-08-27T04:13:57.653Z,14.92
2023-08-27T04:16:28.310Z,14.93
2023-08-27T04:18:59.165Z,14.97
2023-08-27T04:21:29.810Z,14.99
2023-08-27T04:24:00.441Z,15.00
2023-08-27T04:26:31.496Z,14.98
2023-08-27T04:29:02.161Z,14.97
2023-08-27T04:31:34.226Z,14.93
2023-08-27T04:34:05.113Z,14.89
2023-08-27T04:36:35.804Z,14.90
2023-08-27T04:39:08.351Z,14.87
2023-08-27T04:41:38.956Z,14.83
2023-08-27T04:44:12.369Z,14.83
2023-08-27T04:46:44.165Z,14.88
2023-08-27T04:49:16.187Z,14.92
2023-08-27T04:51:46.882Z,14.95
2023-08-27T04:54:17.591Z,14.94
2023-08-27T04:56:48.484Z,14.91
2023-08-27T04:59:21.972Z,14.88
2023-08-27T05:01:56.686Z,14.86
2023-08-27T05:04:27.329Z,14.89
2023-08-27T05:06:58.070Z,14.89
2023-08-27T05:09:29.197Z,14.86
2023-08-27T05:11:59.854Z,14.84
2023-08-27T05:14:30.480Z,14.89
2023-08-27T05:17:01.118Z,14.90
2023-08-27T05:19:31.832Z,14.90
2023-08-27T05:22:03.995Z,14.89
2023-08-27T05:24:36.147Z,14.86
2023-08-27T05:27:07.417Z,14.84
2023-08-27T05:29:38.207Z,14.84
2023-08-27T05:32:09.058Z,14.84
2023-08-27T05:34:39.817Z,14.81
2023-08-27T05:37:11.071Z,14.79
2023-08-27T05:39:41.770Z,14.80
2023-08-27T05:42:12.526Z,14.83
2023-08-27T05:44:43.203Z,14.88
2023-08-27T05:47:16.056Z,14.86
2023-08-27T05:49:47.397Z,14.88
2023-08-27T05:52:18.245Z,14.98
2023-08-27T05:54:49.128Z,15.01
2023-08-27T05:57:21.359Z,15.00
2023-08-27T05:59:52.083Z,15.01
2023-08-27T06:02:22.832Z,15.02
2023-08-27T06:04:53.534Z,15.02
2023-08-27T06:07:24.336Z,15.02
2023-08-27T06:09:54.985Z,15.04
2023-08-27T06:12:25.754Z,15.03
2023-08-27T06:14:56.478Z,15.06
2023-08-27T06:17:27.970Z,15.08
2023-08-27T06:20:10.455Z,15.15
2023-08-27T06:22:47.667Z,15.20
2023-08-27T06:25:26.385Z,15.24
2023-08-27T06:28:08.744Z,15.27
2023-08-27T06:30:45.993Z,15.27
2023-08-27T06:33:18.198Z,15.32
2023-08-27T06:35:50.007Z,15.34
2023-08-27T06:38:20.076Z,15.40
2023-08-27T06:40:51.055Z,15.50
2023-08-27T06:43:21.709Z,15.54
2023-08-27T06:45:52.671Z,15.46
2023-08-27T06:48:23.667Z,15.37
2023-08-27T06:50:55.780Z,15.36
2023-08-27T06:53:26.519Z,15.37
2023-08-27T06:55:57.317Z,15.41
2023-08-27T06:58:28.509Z,15.47
2023-08-27T07:00:59.282Z,15.44
2023-08-27T07:03:31.719Z,15.49
2023-08-27T07:06:06.905Z,15.47
2023-08-27T07:08:40.751Z,15.46
2023-08-27T07:11:18.738Z,15.45
2023-08-27T07:13:49.505Z,15.46
2023-08-27T07:16:20.696Z,15.47
2023-08-27T07:18:51.514Z,15.50
2023-08-27T07:21:23.284Z,15.56
2023-08-27T07:23:54.504Z,15.61
2023-08-27T07:26:25.205Z,15.61
2023-08-27T07:28:57.970Z,15.64
2023-08-27T07:31:29.034Z,15.78
2023-08-27T07:33:59.948Z,15.85
2023-08-27T07:36:31.212Z,16.02
2023-08-27T07:39:01.900Z,16.17
2023-08-27T07:41:32.977Z,16.25
2023-08-27T07:44:03.825Z,16.25
2023-08-27T07:46:34.518Z,16.30
2023-08-27T07:49:05.569Z,16.39
2023-08-27T07:51:36.292Z,16.43
2023-08-27T07:54:08.801Z,16.45
2023-08-27T07:56:39.463Z,16.39
2023-08-27T07:59:10.311Z,16.34
2023-08-27T08:01:40.932Z,16.36
2023-08-27T08:04:11.663Z,16.34
2023-08-27T08:06:42.506Z,16.40
2023-08-27T08:09:14.816Z,16.48
2023-08-27T08:11:46.013Z,16.54
2023-08-27T08:14:16.646Z,16.55
2023-08-27T08:16:47.793Z,16.56
2023-08-27T08:19:18.476Z,16.69
2023-08-27T08:21:49.230Z,16.72
2023-08-27T08:24:19.887Z,16.73
2023-08-27T08:26:53.808Z,16.79
2023-08-27T08:29:24.580Z,16.83
2023-08-27T08:31:55.221Z,16.87
2023-08-27T08:34:25.820Z,16.91
2023-08-27T08:36:56.424Z,17.01
2023-08-27T08:39:27.162Z,17.09
2023-08-27T08:42:09.862Z,17.20
2023-08-27T08:44:52.106Z,17.29
2023-08-27T08:47:24.008Z,17.37
2023-08-27T08:49:57.018Z,17.48
2023-08-27T08:52:33.298Z,17.50
2023-08-27T08:55:06.330Z,17.50
2023-08-27T08:57:41.157Z,17.52
2023-08-27T09:00:14.829Z,17.51
2023-08-27T09:02:48.039Z,17.55
2023-08-27T09:05:21.460Z,17.59
2023-08-27T09:07:52.900Z,17.55
2023-08-27T09:10:26.447Z,17.51
2023-08-27T09:12:59.846Z,17.56
2023-08-27T09:15:30.485Z,17.62
2023-08-27T09:18:01.280Z,17.61
2023-08-27T09:20:32.134Z,17.65
2023-08-27T09:23:03.509Z,17.73
2023-08-27T09:25:34.204Z,17.78
2023-08-27T09:28:07.112Z,17.87
2023-08-27T09:30:37.793Z,17.96
2023-08-27T09:33:08.861Z,18.09
2023-08-27T09:35:43.411Z,18.19
2023-08-27T09:38:18.600Z,18.28
2023-08-27T09:40:49.769Z,18.35
2023-08-27T09:43:20.448Z,18.41
2023-08-27T09:45:51.094Z,18.39
2023-08-27T09:48:28.527Z,18.42
2023-08-27T09:51:07.678Z,18.40
2023-08-27T09:53:38.562Z,18.38
2023-08-27T09:56:09.480Z,18.43
2023-08-27T09:58:42.119Z,18.42
2023-08-27T10:01:13.111Z,18.46
2023-08-27T10:03:43.794Z,18.57
2023-08-27T10:06:14.506Z,18.71
2023-08-27T10:08:53.406Z,18.74
2023-08-27T10:11:25.959Z,18.83
2023-08-27T10:13:59.842Z,18.82
2023-08-27T10:16:32.410Z,18.78
2023-08-27T10:19:03.386Z,18.79
2023-08-27T10:21:34.121Z,18.80
2023-08-27T10:24:06.213Z,18.89
2023-08-27T10:26:37.778Z,19.05
2023-08-27T10:29:08.276Z,19.17
2023-08-27T10:31:39.088Z,19.34
2023-08-27T10:34:10.035Z,19.42
2023-08-27T10:36:42.754Z,19.51
2023-08-27T10:39:14.964Z,19.53
2023-08-27T10:41:45.640Z,19.45
2023-08-27T10:44:21.552Z,19.46
2023-08-27T10:47:15.212Z,19.53
2023-08-27T10:49:54.009Z,19.69
2023-08-27T10:52:30.545Z,19.80
2023-08-27T10:55:03.779Z,19.99
2023-08-27T10:57:40.221Z,20.04
2023-08-27T11:00:13.913Z,20.08
2023-08-27T11:03:15.062Z,20.09
2023-08-27T11:05:46.685Z,19.99
2023-08-27T11:08:17.730Z,19.90
2023-08-27T11:10:48.671Z,19.92
2023-08-27T11:13:37.058Z,20.02
2023-08-27T11:16:15.419Z,20.00
2023-08-27T11:18:51.822Z,20.05
2023-08-27T11:21:43.493Z,20.08
2023-08-27T11:24:26.260Z,20.10
2023-08-27T11:26:57.188Z,20.06
2023-08-27T11:29:28.836Z,20.07
2023-08-27T11:32:05.570Z,20.14
2023-08-27T11:34:40.779Z,20.15
2023-08-27T11:37:13.062Z,20.07
2023-08-27T11:39:44.759Z,20.03
2023-08-27T11:42:16.727Z,20.10
2023-08-27T11:44:55.107Z,20.09
2023-08-27T11:47:26.236Z,20.06
2023-08-27T11:50:00.694Z,20.05
2023-08-27T11:52:31.569Z,20.07
2023-08-27T11:55:02.616Z,20.10
2023-08-27T11:57:35.227Z,20.12
2023-08-27T12:00:13.168Z,20.15
2023-08-27T12:02:44.311Z,20.14
2023-08-27T12:05:15.875Z,20.16
2023-08-27T12:07:46.646Z,20.20
2023-08-27T12:10:19.227Z,20.24
2023-08-27T12:12:50.667Z,20.31
2023-08-27T12:15:21.549Z,20.34
2023-08-27T12:17:53.538Z,20.37
2023-08-27T12:20:33.661Z,20.41
2023-08-27T12:23:15.318Z,20.41
2023-08-27T12:25:51.310Z,20.35
2023-08-27T12:28:22.390Z,20.41
2023-08-27T12:30:55.869Z,20.40
2023-08-27T12:33:41.321Z,20.43
2023-08-27T12:36:12.521Z,20.43
2023-08-27T12:38:43.200Z,20.43
2023-08-27T12:41:13.911Z,20.42
2023-08-27T12:43:44.900Z,20.41
2023-08-27T12:46:15.588Z,20.40
2023-08-27T12:48:46.752Z,20.36
2023-08-27T12:51:17.464Z,20.33
2023-08-27T12:53:48.105Z,20.29
2023-08-27T12:56:18.917Z,20.23
2023-08-27T12:58:49.547Z,20.18
2023-08-27T13:01:20.812Z,20.17
2023-08-27T13:03:51.800Z,20.19
2023-08-27T13:06:22.618Z,20.18
2023-08-27T13:08:53.342Z,20.22
2023-08-27T13:11:24.452Z,20.29
2023-08-27T13:13:57.336Z,20.32
2023-08-27T13:16:33.659Z,20.35
2023-08-27T13:19:17.638Z,20.36
2023-08-27T13:21:55.554Z,20.43
2023-08-27T13:24:27.734Z,20.49
2023-08-27T13:26:58.537Z,20.55
2023-08-27T13:29:29.683Z,20.60
2023-08-27T13:32:01.452Z,20.63
2023-08-27T13:34:32.599Z,20.66
2023-08-27T13:37:03.594Z,20.66
2023-08-27T13:39:34.551Z,20.63
2023-08-27T13:42:06.967Z,20.65
2023-08-27T13:44:38.219Z,20.69
2023-08-27T13:47:09.516Z,20.68
2023-08-27T13:49:40.340Z,20.65
2023-08-27T13:52:19.528Z,20.58
2023-08-27T13:54:50.672Z,20.58
2023-08-27T13:57:21.765Z,20.58
2023-08-27T13:59:53.699Z,20.60
2023-08-27T14:02:24.766Z,20.61
2023-08-27T14:04:56.075Z,20.58
2023-08-27T14:07:29.930Z,20.56
2023-08-27T14:10:02.049Z,20.55
2023-08-27T14:12:33.103Z,20.54
2023-08-27T14:15:08.212Z,20.53
2023-08-27T14:17:39.544Z,20.55
2023-08-27T14:20:12.050Z,20.56
2023-08-27T14:22:42.891Z,20.57
2023-08-27T14:25:14.152Z,20.59
2023-08-27T14:27:45.973Z,20.60
2023-08-27T14:30:17.417Z,20.59
2023-08-27T14:32:46.679Z,20.58
2023-08-27T14:35:18.159Z,20.56
2023-08-27T14:37:52.487Z,20.54
2023-08-27T14:40:23.466Z,20.52
2023-08-27T14:42:55.866Z,20.47
2023-08-27T14:45:27.849Z,20.41
2023-08-27T14:47:59.448Z,20.36
2023-08-27T14:50:35.724Z,20.28
2023-08-27T14:53:08.335Z,20.18
2023-08-27T14:55:39.086Z,20.13
2023-08-27T14:58:12.148Z,20.05
2023-08-27T15:00:44.593Z,19.95
2023-08-27T15:03:17.376Z,19.78
2023-08-27T15:05:50.942Z,19.53
2023-08-27T15:08:26.180Z,19.26
2023-08-27T15:10:58.812Z,18.98
2023-08-27T15:13:32.395Z,18.81
2023-08-27T15:16:04.537Z,18.69
2023-08-27T15:18:35.985Z,18.58
2023-08-27T15:21:07.610Z,18.49
2023-08-27T15:23:39.073Z,18.40
2023-08-27T15:26:09.966Z,18.35
2023-08-27T15:28:40.692Z,18.26
2023-08-27T15:31:12.143Z,18.26
2023-08-27T15:33:43.921Z,18.30
2023-08-27T15:36:18.140Z,18.36
2023-08-27T15:38:51.063Z,18.43
2023-08-27T15:41:22.016Z,18.46
2023-08-27T15:43:54.075Z,18.49
2023-08-27T15:46:25.292Z,18.46
2023-08-27T15:48:56.974Z,18.46
2023-08-27T15:51:29.001Z,18.44
2023-08-27T15:54:00.115Z,18.37
2023-08-27T15:56:31.352Z,18.32
2023-08-27T15:59:06.306Z,18.30
2023-08-27T16:01:38.635Z,18.28
2023-08-27T16:04:10.125Z,18.25
2023-08-27T16:06:41.663Z,18.25
2023-08-27T16:09:12.278Z,18.27
2023-08-27T16:11:43.734Z,18.26
2023-08-27T16:14:15.160Z,18.27
2023-08-27T16:16:47.045Z,18.24
2023-08-27T16:19:18.326Z,18.25
2023-08-27T16:21:49.721Z,18.20
2023-08-27T16:24:21.337Z,18.14
2023-08-27T16:26:50.478Z,18.12
2023-08-27T16:29:21.813Z,18.10
2023-08-27T16:31:52.852Z,18.07
2023-08-27T16:34:24.140Z,18.02
2023-08-27T16:36:57.472Z,18.00
2023-08-27T16:39:28.756Z,17.96
2023-08-27T16:41:59.655Z,17.93
2023-08-27T16:44:30.556Z,17.92
2023-08-27T16:47:01.472Z,17.87
2023-08-27T16:49:33.252Z,17.86
2023-08-27T16:52:07.551Z,17.79
2023-08-27T16:54:38.433Z,17.76
2023-08-27T16:57:09.524Z,17.75
2023-08-27T16:59:41.068Z,17.74
2023-08-27T17:02:11.780Z,17.71
2023-08-27T17:04:42.435Z,17.68
2023-08-27T17:07:13.062Z,17.65
2023-08-27T17:09:43.706Z,17.62
2023-08-27T17:12:14.672Z,17.59
2023-08-27T17:14:49.424Z,17.53
2023-08-27T17:17:20.169Z,17.50
2023-08-27T17:19:53.582Z,17.41
2023-08-27T17:22:25.906Z,17.37
2023-08-27T17:24:57.307Z,17.36
2023-08-27T17:27:27.953Z,17.34
2023-08-27T17:29:58.671Z,17.29
2023-08-27T17:32:29.440Z,17.29
2023-08-27T17:35:00.204Z,17.29
2023-08-27T17:37:31.115Z,17.31
2023-08-27T17:40:01.873Z,17.34
2023-08-27T17:42:32.657Z,17.28
2023-08-27T17:45:05.026Z,17.28
2023-08-27T17:47:35.801Z,17.30
2023-08-27T17:50:07.622Z,17.28
2023-08-27T17:52:38.365Z,17.29
2023-08-27T17:55:10.360Z,17.32
2023-08-27T17:57:41.054Z,17.32
2023-08-27T18:00:13.740Z,17.28
2023-08-27T18:02:44.970Z,17.27
2023-08-27T18:05:19.075Z,17.23
2023-08-27T18:07:50.151Z,17.22
2023-08-27T18:10:21.322Z,17.21
2023-08-27T18:12:52.037Z,17.15
2023-08-27T18:15:22.855Z,17.11
2023-08-27T18:17:53.726Z,17.06
2023-08-27T18:20:24.437Z,17.00
2023-08-27T18:22:55.220Z,16.98
2023-08-27T18:25:25.970Z,16.94
2023-08-27T18:27:56.664Z,16.88
2023-08-27T18:30:31.628Z,16.79
2023-08-27T18:33:03.593Z,16.74
2023-08-27T18:35:34.708Z,16.70
2023-08-27T18:38:05.979Z,16.67
2023-08-27T18:40:36.691Z,16.62
2023-08-27T18:43:07.469Z,16.54
2023-08-27T18:45:38.262Z,16.50
2023-08-27T18:48:09.307Z,16.46
2023-08-27T18:50:42.059Z,16.44
2023-08-27T18:53:12.811Z,16.44
2023-08-27T18:55:46.077Z,16.43
2023-08-27T18:58:16.840Z,16.39
2023-08-27T19:00:47.732Z,16.32
2023-08-27T19:03:18.488Z,16.24
2023-08-27T19:05:49.527Z,16.16
2023-08-27T19:08:20.384Z,16.11
2023-08-27T19:10:52.508Z,16.04
2023-08-27T19:13:30.332Z,15.98
2023-08-27T19:16:18.488Z,15.92
2023-08-27T19:18:54.368Z,15.87
2023-08-27T19:21:36.873Z,15.85
2023-08-27T19:24:12.132Z,15.83
2023-08-27T19:26:50.016Z,15.81
2023-08-27T19:29:25.629Z,15.74
2023-08-27T19:32:00.336Z,15.67
2023-08-27T19:34:31.366Z,15.59
2023-08-27T19:37:02.086Z,15.57
2023-08-27T19:39:33.378Z,15.55
2023-08-27T19:42:04.414Z,15.51
2023-08-27T19:44:35.103Z,15.49
2023-08-27T19:47:06.022Z,15.44
2023-08-27T19:49:36.635Z,15.37
2023-08-27T19:52:09.388Z,15.34
2023-08-27T19:54:39.989Z,15.29
2023-08-27T19:57:13.018Z,15.28
2023-08-27T19:59:43.716Z,15.25
2023-08-27T20:02:14.738Z,15.23
2023-08-27T20:04:45.486Z,15.23
2023-08-27T20:07:16.126Z,15.24
2023-08-27T20:09:46.797Z,15.24
2023-08-27T20:12:17.469Z,15.23
2023-08-27T20:14:49.171Z,15.21
2023-08-27T20:17:18.855Z,15.17
2023-08-27T20:19:49.527Z,15.18
2023-08-27T20:22:20.337Z,15.17
2023-08-27T20:24:51.417Z,15.16
2023-08-27T20:27:22.071Z,15.12
2023-08-27T20:29:52.740Z,15.09
2023-08-27T20:32:23.353Z,15.08
2023-08-27T20:34:53.995Z,15.06
2023-08-27T20:37:24.580Z,15.03
2023-08-27T20:39:56.200Z,14.98
2023-08-27T20:42:29.705Z,14.90
2023-08-27T20:45:00.345Z,14.89
2023-08-27T20:47:32.135Z,14.88
2023-08-27T20:50:02.984Z,14.90
2023-08-27T20:52:33.846Z,14.87
2023-08-27T20:55:04.714Z,14.84
2023-08-27T20:57:35.521Z,14.79
2023-08-27T21:00:09.028Z,14.76
2023-08-27T21:02:40.063Z,14.75
2023-08-27T21:05:11.036Z,14.71
2023-08-27T21:07:42.089Z,14.65
2023-08-27T21:10:13.385Z,14.63
2023-08-27T21:12:44.016Z,14.61
2023-08-27T21:15:14.743Z,14.57
2023-08-27T21:17:45.501Z,14.55
2023-08-27T21:20:16.490Z,14.53
2023-08-27T21:22:47.211Z,14.48
2023-08-27T21:25:18.240Z,14.45
2023-08-27T21:27:48.839Z,14.45
2023-08-27T21:30:19.536Z,14.40
2023-08-27T21:32:50.836Z,14.36
2023-08-27T21:35:21.584Z,14.31
2023-08-27T21:37:52.262Z,14.27
2023-08-27T21:40:23.596Z,14.25
2023-08-27T21:42:54.318Z,14.21
2023-08-27T21:45:25.093Z,14.21
2023-08-27T21:47:55.799Z,14.21
2023-08-27T21:50:27.722Z,14.23
2023-08-27T21:52:58.604Z,14.18
2023-08-27T21:55:29.207Z,14.14
2023-08-27T21:57:59.882Z,14.10
2023-08-27T22:00:30.706Z,14.03
2023-08-27T22:03:01.833Z,14.00
2023-08-27T22:05:32.716Z,13.97
2023-08-27T22:08:04.116Z,13.97
2023-08-27T22:10:35.611Z,13.94
2023-08-27T22:13:06.629Z,13.90
2023-08-27T22:15:37.342Z,13.86
2023-08-27T22:18:08.367Z,13.81
2023-08-27T22:20:38.960Z,13.79
2023-08-27T22:23:09.582Z,13.78
2023-08-27T22:25:44.208Z,13.76
2023-08-27T22:28:15.157Z,13.72
2023-08-27T22:30:45.757Z,13.69
2023-08-27T22:33:16.362Z,13.65
2023-08-27T22:35:46.934Z,13.62
2023-08-27T22:38:17.524Z,13.59
2023-08-27T22:40:48.220Z,13.58
2023-08-27T22:43:18.786Z,13.48
2023-08-27T22:45:51.321Z,13.39
2023-08-27T22:48:21.902Z,13.34
2023-08-27T22:50:52.536Z,13.28
2023-08-27T22:53:23.141Z,13.23
2023-08-27T22:55:53.788Z,13.23
2023-08-27T22:58:25.494Z,13.22
2023-08-27T23:00:57.614Z,13.23
2023-08-27T23:03:28.341Z,13.24
2023-08-27T23:05:59.061Z,13.23
2023-08-27T23:08:29.893Z,13.23
2023-08-27T23:11:00.765Z,13.21
2023-08-27T23:13:31.416Z,13.19
2023-08-27T23:16:02.162Z,13.15
2023-08-27T23:18:32.972Z,13.11
2023-08-27T23:21:03.598Z,13.10
2023-08-27T23:23:35.926Z,13.12
2023-08-27T23:26:06.816Z,13.06
2023-08-27T23:28:37.541Z,13.04
2023-08-27T23:31:09.034Z,13.06
2023-08-27T23:33:39.867Z,13.06
2023-08-27T23:36:10.610Z,13.04
2023-08-27T23:38:41.261Z,12.88
2023-08-27T23:41:11.886Z,12.82
2023-08-27T23:43:42.503Z,12.87
2023-08-27T23:46:13.202Z,12.90
2023-08-27T23:48:43.926Z,12.92
2023-08-27T23:51:14.521Z,12.94
2023-08-27T23:53:45.178Z,12.94
2023-08-27T23:56:15.813Z,12.94
2023-08-27T23:58:46.465Z,12.94
